Time;durP1;ratioP1;P1;durP2;ratioP2;P2;SDS_P1;SDS_P2;PMS_P1;PMS_P2;Temp;Humidity;BMP_temperature;BMP_pressure;BME280_temperature;BME280_humidity;BME280_pressure;Samples;Min_cycle;Max_cycle;Signal;HPM_P1;HPM_P2
2023/01/02 00:00:54;;;;;;;14.17;7.23;;;;;;;;;;5035814;28;20439;-66
2023/01/02 00:03:21;;;;;;;13.03;7.60;;;;;;;;;;5035383;28;20450;-66
2023/01/02 00:05:48;;;;;;;14.17;8.07;;;;;;;;;;5035364;28;20443;-66
2023/01/02 00:08:16;;;;;;;11.37;6.63;;;;;;;;;;5035673;28;20450;-67
2023/01/02 00:10:44;;;;;;;14.43;7.90;;;;;;;;;;5035571;28;20470;-66
2023/01/02 00:13:11;;;;;;;12.20;6.80;;;;;;;;;;5035598;28;20548;-67
2023/01/02 00:15:40;;;;;;;13.03;7.50;;;;;;;;;;5035519;28;20443;-67
2023/01/02 00:18:07;;;;;;;16.00;6.67;;;;;;;;;;5035359;28;20488;-67
2023/01/02 00:20:34;;;;;;;11.70;6.63;;;;;;;;;;5035563;28;20443;-66
2023/01/02 00:23:02;;;;;;;11.53;6.37;;;;;;;;;;5035476;28;20453;-66
2023/01/02 00:25:29;;;;;;;9.53;6.30;;;;;;;;;;5035314;28;20444;-66
2023/01/02 00:27:56;;;;;;;10.40;6.10;;;;;;;;;;5035620;28;20445;-66
2023/01/02 00:30:23;;;;;;;9.20;5.10;;;;;;;;;;5034898;28;20443;-66
2023/01/02 00:32:52;;;;;;;8.93;5.70;;;;;;;;;;5034870;28;20446;-66
2023/01/02 00:35:19;;;;;;;11.93;5.80;;;;;;;;;;5034830;28;20451;-67
2023/01/02 00:37:46;;;;;;;21.83;5.73;;;;;;;;;;5034775;28;20479;-66
2023/01/02 00:40:13;;;;;;;11.73;5.50;;;;;;;;;;5035475;28;20470;-66
2023/01/02 00:42:40;;;;;;;13.13;5.87;;;;;;;;;;5035092;28;20441;-66
2023/01/02 00:45:08;;;;;;;12.33;6.13;;;;;;;;;;5034861;28;20446;-66
2023/01/02 00:47:35;;;;;;;12.10;6.17;;;;;;;;;;5035054;28;20446;-66
2023/01/02 00:50:04;;;;;;;10.70;5.47;;;;;;;;;;5034836;28;20445;-66
2023/01/02 00:52:32;;;;;;;8.67;5.90;;;;;;;;;;5035075;28;20525;-66
2023/01/02 00:54:59;;;;;;;8.23;6.00;;;;;;;;;;5034706;28;20450;-66
2023/01/02 00:57:26;;;;;;;8.80;5.10;;;;;;;;;;5034761;28;20484;-66
2023/01/02 00:59:53;;;;;;;10.40;5.20;;;;;;;;;;5034325;28;20442;-66
2023/01/02 01:02:20;;;;;;;12.33;6.27;;;;;;;;;;5035000;28;20984;-66
2023/01/02 01:04:47;;;;;;;11.17;5.73;;;;;;;;;;5034851;28;20812;-66
2023/01/02 01:07:16;;;;;;;13.67;5.93;;;;;;;;;;5034649;28;20791;-66
2023/01/02 01:09:43;;;;;;;16.73;7.20;;;;;;;;;;5034259;28;20454;-66
2023/01/02 01:12:10;;;;;;;11.20;6.27;;;;;;;;;;5034585;28;20743;-66
2023/01/02 01:14:37;;;;;;;14.83;7.27;;;;;;;;;;5034473;28;20537;-66
2023/01/02 01:17:05;;;;;;;12.67;6.10;;;;;;;;;;5034793;28;20486;-66
2023/01/02 01:19:32;;;;;;;10.73;5.30;;;;;;;;;;5034387;28;20844;-66
2023/01/02 01:22:00;;;;;;;7.77;5.83;;;;;;;;;;5034822;28;20442;-67
2023/01/02 01:24:28;;;;;;;9.30;6.23;;;;;;;;;;5034659;28;20493;-66
2023/01/02 01:26:55;;;;;;;10.80;6.77;;;;;;;;;;5034532;28;20446;-66
2023/01/02 01:29:23;;;;;;;7.50;5.90;;;;;;;;;;5034011;28;20447;-66
2023/01/02 01:31:50;;;;;;;7.23;5.30;;;;;;;;;;5033792;28;20448;-66
2023/01/02 01:34:17;;;;;;;11.40;5.77;;;;;;;;;;5033713;28;20543;-66
2023/01/02 01:36:44;;;;;;;10.37;6.53;;;;;;;;;;5033934;28;20483;-66
2023/01/02 01:39:11;;;;;;;8.60;6.20;;;;;;;;;;5033737;28;20477;-67
2023/01/02 01:41:40;;;;;;;7.10;6.40;;;;;;;;;;5034030;28;20473;-66
2023/01/02 01:44:26;;;;;;;11.13;6.50;;;;;;;;;;5033858;28;20442;-66
2023/01/02 01:46:53;;;;;;;10.80;6.10;;;;;;;;;;5033518;28;20460;-66
2023/01/02 01:49:25;;;;;;;9.27;5.40;;;;;;;;;;5033653;28;20433;-67
2023/01/02 01:51:54;;;;;;;10.00;7.60;;;;;;;;;;5034478;28;20431;-66
2023/01/02 01:54:23;;;;;;;10.07;5.77;;;;;;;;;;5033554;28;20443;-66
2023/01/02 01:56:53;;;;;;;11.53;4.13;;;;;;;;;;5033703;28;20484;-66
2023/01/02 01:59:20;;;;;;;6.60;4.60;;;;;;;;;;5033899;28;20447;-66
2023/01/02 02:01:49;;;;;;;8.77;4.93;;;;;;;;;;5033768;28;20443;-66
2023/01/02 02:04:16;;;;;;;5.83;4.63;;;;;;;;;;5033176;28;20973;-66
2023/01/02 02:06:44;;;;;;;6.30;5.03;;;;;;;;;;5033164;28;20443;-66
2023/01/02 02:09:14;;;;;;;7.30;4.80;;;;;;;;;;5033204;28;20447;-66
2023/01/02 02:11:42;;;;;;;15.07;4.80;;;;;;;;;;5033217;28;20478;-66
2023/01/02 02:14:10;;;;;;;10.33;4.33;;;;;;;;;;5033333;28;20435;-66
2023/01/02 02:16:40;;;;;;;11.37;4.70;;;;;;;;;;5033284;28;20443;-66
2023/01/02 02:19:33;;;;;;;9.10;4.43;;;;;;;;;;5033440;28;20467;-66
2023/01/02 02:22:08;;;;;;;9.00;4.40;;;;;;;;;;5033137;28;20450;-66
2023/01/02 02:25:05;;;;;;;6.93;4.07;;;;;;;;;;5033837;28;20437;-67
2023/01/02 02:27:43;;;;;;;7.10;3.90;;;;;;;;;;4991626;28;20453;-66
2023/01/02 02:30:15;;;;;;;7.60;4.40;;;;;;;;;;5026223;28;20796;-66
2023/01/02 02:33:01;;;;;;;8.97;3.80;;;;;;;;;;5033392;28;20435;-66
2023/01/02 02:35:35;;;;;;;8.03;4.00;;;;;;;;;;5032717;28;20955;-67
2023/01/02 02:38:05;;;;;;;6.90;4.40;;;;;;;;;;5033097;28;20801;-66
2023/01/02 02:40:37;;;;;;;8.03;4.57;;;;;;;;;;5033562;28;20456;-66
2023/01/02 02:43:09;;;;;;;9.10;4.63;;;;;;;;;;5032753;28;20452;-67
2023/01/02 02:45:43;;;;;;;9.93;4.43;;;;;;;;;;5032841;28;20993;-66
2023/01/02 02:48:14;;;;;;;10.40;4.20;;;;;;;;;;5033413;28;20505;-65
2023/01/02 02:50:43;;;;;;;12.77;5.07;;;;;;;;;;5033333;28;20753;-67
2023/01/02 02:53:15;;;;;;;6.13;4.50;;;;;;;;;;5032617;28;20538;-67
2023/01/02 02:55:45;;;;;;;14.23;5.40;;;;;;;;;;5033130;28;20435;-67
2023/01/02 02:58:13;;;;;;;10.50;4.17;;;;;;;;;;5032737;28;21009;-66
2023/01/02 03:00:42;;;;;;;10.50;5.23;;;;;;;;;;5032738;28;20813;-66
2023/01/02 03:03:16;;;;;;;10.97;5.43;;;;;;;;;;5032752;28;20440;-66
2023/01/02 03:05:44;;;;;;;10.90;5.20;;;;;;;;;;5035568;28;20920;-67
2023/01/02 03:08:15;;;;;;;5.50;4.70;;;;;;;;;;5037235;28;20452;-66
2023/01/02 03:10:47;;;;;;;8.00;5.20;;;;;;;;;;5036135;28;20463;-67
2023/01/02 03:13:18;;;;;;;7.97;4.70;;;;;;;;;;5035146;28;20447;-66
2023/01/02 03:15:52;;;;;;;5.47;4.60;;;;;;;;;;5035290;28;20433;-67
2023/01/02 03:18:23;;;;;;;10.23;5.70;;;;;;;;;;5035477;28;20470;-66
2023/01/02 03:20:56;;;;;;;6.50;4.43;;;;;;;;;;5035604;28;20840;-67
2023/01/02 03:23:25;;;;;;;8.03;6.30;;;;;;;;;;5035384;28;20457;-67
2023/01/02 03:25:52;;;;;;;7.43;4.90;;;;;;;;;;5035095;28;20465;-67
2023/01/02 03:28:22;;;;;;;17.37;10.20;;;;;;;;;;5035366;28;20456;-67
2023/01/02 03:30:53;;;;;;;15.13;5.73;;;;;;;;;;5035494;28;20445;-66
2023/01/02 03:33:25;;;;;;;12.00;5.00;;;;;;;;;;5035594;28;20435;-67
2023/01/02 03:35:54;;;;;;;17.30;7.07;;;;;;;;;;5035264;28;20428;-67
2023/01/02 03:38:23;;;;;;;13.47;5.97;;;;;;;;;;5034791;28;20571;-67
2023/01/02 03:40:54;;;;;;;7.50;5.27;;;;;;;;;;5035096;28;20994;-67
2023/01/02 03:43:24;;;;;;;9.77;7.27;;;;;;;;;;5034590;28;20448;-66
2023/01/02 03:45:55;;;;;;;10.50;5.77;;;;;;;;;;5034790;28;20494;-66
2023/01/02 03:48:27;;;;;;;12.33;6.33;;;;;;;;;;5035407;28;20437;-66
2023/01/02 03:50:55;;;;;;;7.33;4.57;;;;;;;;;;5034496;28;20485;-68
2023/01/02 03:53:23;;;;;;;8.47;5.00;;;;;;;;;;5034707;28;20791;-66
2023/01/02 03:55:56;;;;;;;11.63;4.97;;;;;;;;;;5034644;28;20444;-66
2023/01/02 03:58:27;;;;;;;8.53;5.60;;;;;;;;;;5034319;28;20463;-67
2023/01/02 04:00:57;;;;;;;9.00;5.40;;;;;;;;;;5034396;28;20428;-67
2023/01/02 04:03:26;;;;;;;7.93;5.00;;;;;;;;;;5040620;28;20438;-66
2023/01/02 04:06:00;;;;;;;8.93;4.87;;;;;;;;;;5054341;28;20438;-67
2023/01/02 04:08:31;;;;;;;12.07;5.63;;;;;;;;;;5054307;28;20484;-67
2023/01/02 04:10:59;;;;;;;11.50;4.97;;;;;;;;;;5016716;28;1096788;-66
2023/01/02 04:13:28;;;;;;;7.63;4.87;;;;;;;;;;5055196;28;20201;-66
2023/01/02 04:15:57;;;;;;;14.07;5.07;;;;;;;;;;5054971;28;20440;-66
2023/01/02 04:18:27;;;;;;;10.77;6.43;;;;;;;;;;5055143;28;20485;-66
2023/01/02 04:20:56;;;;;;;14.80;5.17;;;;;;;;;;5055830;28;20449;-66
2023/01/02 04:23:26;;;;;;;7.17;4.80;;;;;;;;;;5055296;28;20437;-66
2023/01/02 04:25:56;;;;;;;9.87;4.80;;;;;;;;;;5054995;28;20450;-66
2023/01/02 04:28:25;;;;;;;12.57;4.70;;;;;;;;;;5055289;28;20436;-66
2023/01/02 04:30:55;;;;;;;11.70;4.47;;;;;;;;;;5055177;28;20453;-66
2023/01/02 04:33:24;;;;;;;20.73;6.53;;;;;;;;;;5054796;28;20430;-67
2023/01/02 04:35:51;;;;;;;11.37;5.33;;;;;;;;;;5055293;28;20747;-66
2023/01/02 04:38:19;;;;;;;10.27;5.20;;;;;;;;;;5054844;28;20477;-67
2023/01/02 04:40:46;;;;;;;8.40;5.50;;;;;;;;;;5055033;28;20446;-66
2023/01/02 04:43:16;;;;;;;10.57;5.23;;;;;;;;;;5054890;28;20443;-67
2023/01/02 04:45:43;;;;;;;9.07;5.07;;;;;;;;;;5054783;28;20436;-66
2023/01/02 04:48:10;;;;;;;9.33;4.77;;;;;;;;;;5054956;28;20457;-66
2023/01/02 04:50:39;;;;;;;10.57;5.40;;;;;;;;;;5054747;28;20442;-67
2023/01/02 04:53:06;;;;;;;8.50;5.33;;;;;;;;;;5043655;28;20945;-67
2023/01/02 04:55:33;;;;;;;9.80;6.10;;;;;;;;;;5035429;28;20445;-67
2023/01/02 04:58:01;;;;;;;8.07;5.13;;;;;;;;;;5035184;28;20483;-67
2023/01/02 05:00:28;;;;;;;8.63;5.17;;;;;;;;;;5034869;28;20450;-67
2023/01/02 05:02:55;;;;;;;10.03;5.50;;;;;;;;;;5034777;28;20445;-67
2023/01/02 05:05:22;;;;;;;9.17;5.03;;;;;;;;;;5034846;28;20956;-67
2023/01/02 05:07:51;;;;;;;11.83;5.90;;;;;;;;;;5035078;28;20801;-67
2023/01/02 05:10:18;;;;;;;12.40;7.03;;;;;;;;;;5034910;28;20478;-67
2023/01/02 05:12:45;;;;;;;12.23;5.47;;;;;;;;;;5034747;28;20508;-67
2023/01/02 05:15:13;;;;;;;9.67;5.87;;;;;;;;;;5034884;28;20434;-67
2023/01/02 05:17:41;;;;;;;11.53;5.30;;;;;;;;;;5034855;28;20445;-67
2023/01/02 05:20:09;;;;;;;10.87;5.33;;;;;;;;;;5034420;28;20449;-67
2023/01/02 05:25:36;;;;;;;13.60;5.97;;;;;;;;;;4973670;28;20428;-67
2023/01/02 05:28:04;;;;;;;9.23;5.27;;;;;;;;;;5019939;28;20452;-67
2023/01/02 05:30:31;;;;;;;13.97;5.27;;;;;;;;;;5034616;28;20443;-67
2023/01/02 05:32:58;;;;;;;8.47;5.53;;;;;;;;;;5034229;28;20451;-67
2023/01/02 05:35:25;;;;;;;8.17;4.60;;;;;;;;;;5034220;28;20951;-67
2023/01/02 05:37:52;;;;;;;10.07;5.27;;;;;;;;;;5034654;28;20443;-67
2023/01/02 05:40:20;;;;;;;11.50;5.20;;;;;;;;;;5033954;28;20542;-66
2023/01/02 05:42:48;;;;;;;15.70;5.50;;;;;;;;;;5034102;28;20474;-67
2023/01/02 05:45:15;;;;;;;12.03;5.90;;;;;;;;;;5034477;28;20443;-67
2023/01/02 05:47:43;;;;;;;9.83;5.70;;;;;;;;;;5034475;28;20441;-67
2023/01/02 05:50:10;;;;;;;10.43;5.13;;;;;;;;;;5034175;28;20451;-67
2023/01/02 05:52:37;;;;;;;11.47;5.40;;;;;;;;;;5034507;28;20447;-66
2023/01/02 05:55:05;;;;;;;5.40;4.30;;;;;;;;;;5033795;28;20495;-67
2023/01/02 05:57:34;;;;;;;8.97;4.80;;;;;;;;;;5034214;28;20448;-67
2023/01/02 06:00:02;;;;;;;10.13;5.37;;;;;;;;;;5033925;28;20487;-67
2023/01/02 06:02:29;;;;;;;9.23;5.37;;;;;;;;;;5033861;28;20517;-67
2023/01/02 06:04:57;;;;;;;11.10;5.00;;;;;;;;;;5033651;28;20539;-67
2023/01/02 06:07:24;;;;;;;10.20;4.77;;;;;;;;;;5033944;28;20452;-67
2023/01/02 06:09:51;;;;;;;8.50;4.60;;;;;;;;;;5033316;28;20451;-67
2023/01/02 06:12:18;;;;;;;5.93;4.47;;;;;;;;;;5033562;28;20913;-67
2023/01/02 06:14:45;;;;;;;9.67;4.97;;;;;;;;;;5033960;28;20444;-67
2023/01/02 06:17:14;;;;;;;12.43;4.50;;;;;;;;;;5033528;28;20451;-67
2023/01/02 06:19:41;;;;;;;12.83;4.80;;;;;;;;;;5033621;28;20493;-67
2023/01/02 06:22:08;;;;;;;6.60;4.73;;;;;;;;;;5033459;28;20456;-67
2023/01/02 06:24:35;;;;;;;9.43;4.73;;;;;;;;;;5033631;28;20470;-67
2023/01/02 06:27:03;;;;;;;10.93;4.40;;;;;;;;;;5033404;28;20444;-67
2023/01/02 06:29:30;;;;;;;7.77;5.00;;;;;;;;;;5033192;28;20882;-67
2023/01/02 06:31:57;;;;;;;8.03;4.40;;;;;;;;;;5033555;28;20447;-67
2023/01/02 06:34:25;;;;;;;9.63;4.20;;;;;;;;;;5033352;28;20777;-67
2023/01/02 06:36:53;;;;;;;7.80;4.93;;;;;;;;;;5033542;28;20804;-67
2023/01/02 06:39:20;;;;;;;8.07;4.17;;;;;;;;;;5033703;28;20495;-67
2023/01/02 06:41:47;;;;;;;9.60;5.00;;;;;;;;;;5033872;28;20790;-66
2023/01/02 06:44:14;;;;;;;8.63;4.00;;;;;;;;;;5033368;28;20437;-67
2023/01/02 06:46:41;;;;;;;9.37;3.80;;;;;;;;;;5033447;28;20466;-67
2023/01/02 06:49:08;;;;;;;6.13;5.27;;;;;;;;;;5033353;28;20447;-67
2023/01/02 06:51:37;;;;;;;13.47;5.03;;;;;;;;;;5033434;28;20472;-67
2023/01/02 06:54:04;;;;;;;5.97;4.17;;;;;;;;;;5033499;28;20440;-70
2023/01/02 06:56:31;;;;;;;10.03;4.30;;;;;;;;;;5033396;28;20444;-65
2023/01/02 06:58:59;;;;;;;8.23;5.17;;;;;;;;;;5033174;28;20492;-65
2023/01/02 07:01:28;;;;;;;6.50;4.13;;;;;;;;;;5033351;28;20449;-65
2023/01/02 07:03:55;;;;;;;14.53;4.63;;;;;;;;;;5033369;28;20471;-65
2023/01/02 07:06:23;;;;;;;5.37;3.97;;;;;;;;;;5032975;28;20448;-66
2023/01/02 07:08:52;;;;;;;10.20;4.10;;;;;;;;;;5033090;28;20455;-65
2023/01/02 07:11:20;;;;;;;9.47;4.43;;;;;;;;;;5032985;28;20474;-65
2023/01/02 07:13:48;;;;;;;12.80;6.33;;;;;;;;;;5032853;28;21047;-66
2023/01/02 07:16:16;;;;;;;4.53;3.70;;;;;;;;;;5033216;28;20772;-65
2023/01/02 07:18:43;;;;;;;12.20;4.33;;;;;;;;;;5033162;28;20484;-66
2023/01/02 07:21:11;;;;;;;11.97;4.17;;;;;;;;;;5033120;28;20471;-66
2023/01/02 07:23:40;;;;;;;5.77;4.30;;;;;;;;;;5033091;28;20439;-65
2023/01/02 07:26:08;;;;;;;13.33;4.70;;;;;;;;;;5033351;28;20450;-65
2023/01/02 07:28:36;;;;;;;6.80;3.60;;;;;;;;;;5033621;28;20457;-65
2023/01/02 07:31:04;;;;;;;6.70;4.40;;;;;;;;;;5032895;28;20446;-65
2023/01/02 07:33:31;;;;;;;8.50;4.13;;;;;;;;;;5033075;28;20443;-65
2023/01/02 07:35:59;;;;;;;9.20;3.90;;;;;;;;;;5033069;28;20437;-65
2023/01/02 07:38:26;;;;;;;5.83;3.67;;;;;;;;;;5032869;28;20449;-65
2023/01/02 07:40:53;;;;;;;8.07;3.67;;;;;;;;;;5032812;28;20444;-66
2023/01/02 07:43:22;;;;;;;5.93;4.03;;;;;;;;;;5032931;28;20804;-66
2023/01/02 07:45:49;;;;;;;6.93;4.40;;;;;;;;;;5032508;28;20443;-65
2023/01/02 07:48:17;;;;;;;7.97;4.40;;;;;;;;;;5033212;28;20550;-65
2023/01/02 07:50:44;;;;;;;5.53;3.50;;;;;;;;;;5033578;28;20948;-65
2023/01/02 07:53:11;;;;;;;5.57;4.03;;;;;;;;;;5036188;28;20538;-66
2023/01/02 07:55:38;;;;;;;6.00;3.93;;;;;;;;;;5036357;28;20553;-65
2023/01/02 07:58:05;;;;;;;12.87;4.20;;;;;;;;;;5036073;28;20535;-65
2023/01/02 08:00:34;;;;;;;12.93;4.50;;;;;;;;;;5035919;28;20480;-66
2023/01/02 08:03:01;;;;;;;6.37;4.30;;;;;;;;;;5036371;28;20439;-65
2023/01/02 08:05:28;;;;;;;8.13;3.93;;;;;;;;;;5036209;28;20450;-65
2023/01/02 08:07:56;;;;;;;7.33;5.33;;;;;;;;;;5035962;28;20447;-65
2023/01/02 08:10:23;;;;;;;4.97;4.07;;;;;;;;;;5035917;28;20824;-65
2023/01/02 08:12:50;;;;;;;6.80;4.63;;;;;;;;;;5036335;28;20901;-65
2023/01/02 08:15:17;;;;;;;5.87;3.90;;;;;;;;;;5036436;28;20797;-65
2023/01/02 08:17:46;;;;;;;5.30;3.43;;;;;;;;;;5036108;28;20453;-65
2023/01/02 08:20:13;;;;;;;7.07;3.90;;;;;;;;;;5035814;28;20569;-65
2023/01/02 08:22:40;;;;;;;5.10;3.90;;;;;;;;;;5036399;28;20441;-65
2023/01/02 08:25:08;;;;;;;10.17;4.97;;;;;;;;;;5036287;28;20443;-65
2023/01/02 08:27:35;;;;;;;5.57;3.63;;;;;;;;;;5036594;28;20953;-65
2023/01/02 08:30:02;;;;;;;6.33;3.70;;;;;;;;;;5035394;28;20454;-65
2023/01/02 08:32:30;;;;;;;4.00;3.50;;;;;;;;;;5035504;28;20454;-65
2023/01/02 08:34:58;;;;;;;8.40;3.80;;;;;;;;;;5035918;28;20475;-66
2023/01/02 08:37:25;;;;;;;3.80;3.23;;;;;;;;;;5035793;28;20937;-65
2023/01/02 08:39:52;;;;;;;12.80;4.23;;;;;;;;;;5036110;28;20490;-65
2023/01/02 08:42:20;;;;;;;7.27;4.07;;;;;;;;;;5035755;28;20455;-65
2023/01/02 08:44:47;;;;;;;7.37;4.57;;;;;;;;;;5035783;28;20453;-65
2023/01/02 08:47:14;;;;;;;5.93;3.73;;;;;;;;;;5035217;28;20931;-65
2023/01/02 08:49:41;;;;;;;5.43;4.33;;;;;;;;;;5035223;28;20463;-65
2023/01/02 08:52:10;;;;;;;10.10;4.20;;;;;;;;;;5035485;28;20805;-65
2023/01/02 08:54:37;;;;;;;6.27;5.27;;;;;;;;;;5035450;28;20449;-66
2023/01/02 08:57:04;;;;;;;5.03;4.53;;;;;;;;;;5035308;28;20443;-65
2023/01/02 08:59:31;;;;;;;5.47;4.07;;;;;;;;;;5035234;28;20480;-65
2023/01/02 09:01:58;;;;;;;5.37;3.80;;;;;;;;;;5034515;28;20443;-66
2023/01/02 09:04:26;;;;;;;4.87;4.40;;;;;;;;;;5035808;28;20448;-66
2023/01/02 09:06:53;;;;;;;4.93;4.40;;;;;;;;;;5034764;28;20490;-65
2023/01/02 09:09:21;;;;;;;5.37;4.90;;;;;;;;;;5035390;28;20455;-65
2023/01/02 09:11:50;;;;;;;5.93;5.33;;;;;;;;;;5035180;28;20474;-66
2023/01/02 09:14:17;;;;;;;9.17;5.00;;;;;;;;;;5034957;28;20449;-66
2023/01/02 09:16:45;;;;;;;5.10;4.50;;;;;;;;;;5034940;28;20444;-65
2023/01/02 09:19:12;;;;;;;5.43;4.50;;;;;;;;;;5034865;28;20556;-65
2023/01/02 09:21:39;;;;;;;8.30;4.80;;;;;;;;;;5034785;28;20567;-65
2023/01/02 09:24:07;;;;;;;5.80;5.30;;;;;;;;;;5035415;28;20439;-65
2023/01/02 09:26:37;;;;;;;7.03;5.90;;;;;;;;;;5034653;28;20456;-65
2023/01/02 09:29:04;;;;;;;5.50;4.93;;;;;;;;;;5034766;28;20444;-65
2023/01/02 09:31:31;;;;;;;4.87;4.37;;;;;;;;;;5035002;28;20447;-65
2023/01/02 09:33:58;;;;;;;4.63;4.10;;;;;;;;;;5034411;28;20450;-66
2023/01/02 09:36:25;;;;;;;2.37;1.93;;;;;;;;;;5034237;28;20435;-65
2023/01/02 09:38:53;;;;;;;1.50;1.40;;;;;;;;;;5033595;28;20936;-66
2023/01/02 09:41:27;;;;;;;2.23;1.50;;;;;;;;;;5034618;28;20512;-66
2023/01/02 09:43:57;;;;;;;1.30;1.20;;;;;;;;;;5034648;28;20519;-66
2023/01/02 09:46:28;;;;;;;2.93;1.50;;;;;;;;;;5034147;28;20429;-66
2023/01/02 09:48:55;;;;;;;1.30;1.20;;;;;;;;;;5034740;28;20443;-66
2023/01/02 09:51:23;;;;;;;1.67;1.00;;;;;;;;;;5034403;28;20465;-66
2023/01/02 09:53:50;;;;;;;1.00;1.00;;;;;;;;;;5034351;28;20786;-65
2023/01/02 09:56:20;;;;;;;1.03;0.97;;;;;;;;;;5033876;28;20952;-66
2023/01/02 09:58:51;;;;;;;0.97;0.97;;;;;;;;;;5034962;28;20453;-66
2023/01/02 10:01:23;;;;;;;0.97;0.97;;;;;;;;;;5034067;28;20905;-65
2023/01/02 10:03:55;;;;;;;1.00;1.00;;;;;;;;;;5034360;28;20430;-65
2023/01/02 10:06:24;;;;;;;1.27;1.17;;;;;;;;;;5034291;28;20792;-66
2023/01/02 10:08:57;;;;;;;1.30;1.20;;;;;;;;;;5034274;28;20446;-65
2023/01/02 10:11:34;;;;;;;1.20;1.10;;;;;;;;;;5034171;28;20484;-65
2023/01/02 10:14:02;;;;;;;1.30;1.20;;;;;;;;;;5033363;28;20434;-65
2023/01/02 10:16:32;;;;;;;1.47;1.37;;;;;;;;;;5033578;28;20936;-65
2023/01/02 10:19:01;;;;;;;1.73;1.57;;;;;;;;;;5034414;28;20529;-65
2023/01/02 10:21:30;;;;;;;1.57;1.47;;;;;;;;;;5033635;28;20484;-66
2023/01/02 10:24:04;;;;;;;1.97;1.57;;;;;;;;;;5033842;28;20439;-65
2023/01/02 10:26:33;;;;;;;2.93;2.57;;;;;;;;;;5033871;28;20433;-66
2023/01/02 10:29:05;;;;;;;3.33;1.80;;;;;;;;;;5033746;28;20443;-65
2023/01/02 10:31:37;;;;;;;2.23;1.80;;;;;;;;;;5033436;28;21114;-66
2023/01/02 10:34:05;;;;;;;1.90;1.80;;;;;;;;;;5033394;28;20909;-65
2023/01/02 10:36:33;;;;;;;2.10;2.00;;;;;;;;;;5033263;28;20442;-65
2023/01/02 10:39:02;;;;;;;1.73;1.63;;;;;;;;;;5033603;28;20468;-65
2023/01/02 10:41:30;;;;;;;2.50;2.30;;;;;;;;;;5033467;28;20474;-65
2023/01/02 10:43:59;;;;;;;3.00;2.80;;;;;;;;;;5033501;28;20451;-65
2023/01/02 10:46:35;;;;;;;3.73;3.10;;;;;;;;;;5033445;28;20443;-65
2023/01/02 10:49:03;;;;;;;4.30;4.00;;;;;;;;;;5033499;28;20426;-65
2023/01/02 10:51:30;;;;;;;3.60;3.30;;;;;;;;;;5033683;28;20793;-65
2023/01/02 10:54:07;;;;;;;6.73;4.83;;;;;;;;;;5033703;28;20450;-65
2023/01/02 10:56:35;;;;;;;4.80;4.40;;;;;;;;;;5033815;28;20433;-65
2023/01/02 10:59:02;;;;;;;5.50;5.10;;;;;;;;;;5032998;28;20454;-65
2023/01/02 11:01:30;;;;;;;5.47;4.97;;;;;;;;;;5032984;28;20474;-65
2023/01/02 11:04:13;;;;;;;6.93;5.50;;;;;;;;;;5033268;28;20442;-65
2023/01/02 11:06:49;;;;;;;4.93;4.50;;;;;;;;;;5033935;28;20489;-65
2023/01/02 11:09:18;;;;;;;6.27;5.77;;;;;;;;;;5033219;28;20449;-65
2023/01/02 11:11:49;;;;;;;5.53;5.00;;;;;;;;;;5033149;28;20472;-65
2023/01/02 11:14:16;;;;;;;5.60;5.20;;;;;;;;;;5033179;28;20437;-65
2023/01/02 11:16:43;;;;;;;4.80;4.40;;;;;;;;;;5033227;28;20443;-65
2023/01/02 11:19:18;;;;;;;5.07;4.67;;;;;;;;;;5032764;28;20457;-66
2023/01/02 11:21:47;;;;;;;5.53;5.13;;;;;;;;;;5033063;28;20561;-65
2023/01/02 11:24:18;;;;;;;4.77;4.47;;;;;;;;;;5033041;28;20960;-66
2023/01/02 11:26:47;;;;;;;6.20;5.13;;;;;;;;;;5035660;28;20885;-66
2023/01/02 11:29:16;;;;;;;5.50;5.10;;;;;;;;;;5037107;28;20532;-65
2023/01/02 11:31:44;;;;;;;4.67;4.37;;;;;;;;;;5037527;28;20460;-66
2023/01/02 11:34:19;;;;;;;4.60;4.30;;;;;;;;;;5036898;28;20537;-65
2023/01/02 11:37:01;;;;;;;4.50;4.10;;;;;;;;;;5037116;28;20440;-65
2023/01/02 11:39:28;;;;;;;4.40;4.00;;;;;;;;;;5037005;28;20454;-65
2023/01/02 11:44:51;;;;;;;3.53;3.30;;;;;;;;;;5036473;28;20481;-65
2023/01/02 11:47:18;;;;;;;4.10;3.80;;;;;;;;;;5037305;28;20422;-65
2023/01/02 11:49:47;;;;;;;4.03;3.73;;;;;;;;;;5036587;28;20856;-65
2023/01/02 11:52:17;;;;;;;3.37;3.03;;;;;;;;;;5036798;28;20477;-65
2023/01/02 11:54:47;;;;;;;3.70;3.50;;;;;;;;;;5036498;28;20450;-65
2023/01/02 11:57:19;;;;;;;3.80;3.50;;;;;;;;;;5036866;28;20514;-65
2023/01/02 11:59:49;;;;;;;4.03;3.73;;;;;;;;;;5035908;28;20443;-65
2023/01/02 12:02:18;;;;;;;3.70;3.43;;;;;;;;;;5036033;28;20940;-65
2023/01/02 12:04:45;;;;;;;3.17;2.87;;;;;;;;;;5036019;28;20445;-65
2023/01/02 12:07:23;;;;;;;3.73;3.43;;;;;;;;;;5036120;28;20444;-65
2023/01/02 12:09:56;;;;;;;3.97;3.30;;;;;;;;;;5035962;28;20450;-65
2023/01/02 12:12:32;;;;;;;3.40;3.10;;;;;;;;;;5036540;28;20426;-65
2023/01/02 12:15:09;;;;;;;4.50;3.23;;;;;;;;;;5036009;28;20439;-66
2023/01/02 12:17:43;;;;;;;3.00;2.80;;;;;;;;;;5036838;28;20437;-65
2023/01/02 12:20:15;;;;;;;2.93;2.63;;;;;;;;;;5036081;28;20475;-65
2023/01/02 12:23:04;;;;;;;2.90;2.60;;;;;;;;;;5036232;28;20458;-65
2023/01/02 12:25:42;;;;;;;2.67;2.47;;;;;;;;;;5035757;28;20439;-65
2023/01/02 12:28:16;;;;;;;2.93;2.60;;;;;;;;;;5035542;28;20438;-65
2023/01/02 12:30:48;;;;;;;3.87;3.57;;;;;;;;;;5035605;28;20431;-65
2023/01/02 12:33:28;;;;;;;7.00;3.27;;;;;;;;;;5035145;28;20440;-65
2023/01/02 12:36:06;;;;;;;5.07;3.33;;;;;;;;;;5035466;28;20430;-65
2023/01/02 12:38:39;;;;;;;3.77;2.73;;;;;;;;;;5035477;28;20518;-65
2023/01/02 12:41:14;;;;;;;3.70;3.03;;;;;;;;;;5035688;28;20565;-65
2023/01/02 12:43:50;;;;;;;3.20;3.00;;;;;;;;;;5035659;28;20435;-65
2023/01/02 12:46:25;;;;;;;3.40;3.10;;;;;;;;;;5035277;28;20506;-65
2023/01/02 12:49:08;;;;;;;3.50;3.20;;;;;;;;;;5035146;28;20452;-65
2023/01/02 12:51:39;;;;;;;4.00;3.20;;;;;;;;;;5035885;28;20449;-65
2023/01/02 12:54:16;;;;;;;3.70;3.40;;;;;;;;;;5035101;28;20433;-65
2023/01/02 12:56:47;;;;;;;3.30;3.00;;;;;;;;;;5035457;28;20422;-65
2023/01/02 12:59:24;;;;;;;3.43;3.13;;;;;;;;;;5035355;28;20447;-65
2023/01/02 13:01:57;;;;;;;3.40;3.20;;;;;;;;;;5035037;28;20467;-65
2023/01/02 13:04:26;;;;;;;2.73;2.53;;;;;;;;;;5035420;28;20763;-65
2023/01/02 13:06:55;;;;;;;5.07;3.40;;;;;;;;;;5034896;28;20447;-65
2023/01/02 13:09:26;;;;;;;3.17;2.90;;;;;;;;;;5034981;28;20546;-65
2023/01/02 13:11:59;;;;;;;3.57;2.93;;;;;;;;;;5035620;28;20494;-65
2023/01/02 13:14:28;;;;;;;3.70;3.40;;;;;;;;;;5035467;28;20451;-65
2023/01/02 13:16:58;;;;;;;5.57;3.10;;;;;;;;;;5034965;28;20480;-66
2023/01/02 13:19:30;;;;;;;4.67;3.20;;;;;;;;;;5035210;28;20519;-65
2023/01/02 13:22:00;;;;;;;4.20;3.07;;;;;;;;;;5035024;28;20504;-65
2023/01/02 13:24:29;;;;;;;4.40;3.10;;;;;;;;;;5034477;28;20451;-65
2023/01/02 13:26:57;;;;;;;3.80;3.50;;;;;;;;;;5034501;28;20449;-65
2023/01/02 13:29:29;;;;;;;4.10;3.27;;;;;;;;;;5034296;28;20444;-65
2023/01/02 13:31:58;;;;;;;4.17;3.77;;;;;;;;;;5034364;28;20537;-65
2023/01/02 13:34:26;;;;;;;4.13;3.43;;;;;;;;;;5034221;28;20537;-65
2023/01/02 13:36:59;;;;;;;4.23;3.53;;;;;;;;;;5034851;28;20944;-65
2023/01/02 13:39:27;;;;;;;3.57;3.27;;;;;;;;;;5034736;28;20459;-66
2023/01/02 13:44:44;;;;;;;4.17;3.77;;;;;;;;;;5034295;28;20398;-65
2023/01/02 13:47:15;;;;;;;5.30;3.83;;;;;;;;;;5034430;28;20802;-65
2023/01/02 13:49:42;;;;;;;4.40;4.00;;;;;;;;;;5033992;28;20462;-65
2023/01/02 13:52:15;;;;;;;5.90;3.83;;;;;;;;;;5034201;28;20451;-65
2023/01/02 13:55:02;;;;;;;3.40;3.10;;;;;;;;;;5034063;28;20912;-65
2023/01/02 13:57:34;;;;;;;4.40;4.00;;;;;;;;;;5034022;28;20450;-66
2023/01/02 14:00:02;;;;;;;3.90;3.60;;;;;;;;;;5033813;28;20507;-67
2023/01/02 14:02:30;;;;;;;4.63;3.70;;;;;;;;;;5034047;28;20786;-67
2023/01/02 14:04:57;;;;;;;4.00;3.70;;;;;;;;;;5033726;28;20454;-66
2023/01/02 14:07:39;;;;;;;3.87;3.57;;;;;;;;;;5034125;28;20445;-66
2023/01/02 14:10:27;;;;;;;6.33;3.10;;;;;;;;;;5033640;28;20482;-66
2023/01/02 14:12:59;;;;;;;3.57;3.27;;;;;;;;;;5033692;28;20443;-66
2023/01/02 14:15:27;;;;;;;10.00;3.67;;;;;;;;;;5039077;28;20419;-66
2023/01/02 14:18:02;;;;;;;3.30;3.07;;;;;;;;;;5054419;28;20463;-66
2023/01/02 14:20:31;;;;;;;4.67;4.27;;;;;;;;;;5032384;28;20537;-67
2023/01/02 14:23:00;;;;;;;4.03;3.53;;;;;;;;;;5033901;28;20447;-67
2023/01/02 14:25:28;;;;;;;4.80;3.10;;;;;;;;;;5033518;28;20454;-66
2023/01/02 14:27:58;;;;;;;9.33;3.57;;;;;;;;;;5033178;28;20494;-67
2023/01/02 14:30:30;;;;;;;4.23;3.83;;;;;;;;;;5033518;28;20435;-66
2023/01/02 14:32:59;;;;;;;5.27;3.40;;;;;;;;;;5033239;28;20943;-66
2023/01/02 14:35:29;;;;;;;4.00;3.60;;;;;;;;;;5033177;28;20452;-66
2023/01/02 14:37:57;;;;;;;3.93;3.53;;;;;;;;;;5033309;28;20440;-67
2023/01/02 14:40:41;;;;;;;5.43;4.07;;;;;;;;;;5033643;28;20541;-66
2023/01/02 14:43:30;;;;;;;5.97;4.10;;;;;;;;;;5033314;28;20434;-65
2023/01/02 14:45:59;;;;;;;4.13;3.83;;;;;;;;;;5033122;28;20445;-66
2023/01/02 14:48:30;;;;;;;5.30;3.97;;;;;;;;;;5032701;28;20454;-66
2023/01/02 14:51:00;;;;;;;4.53;4.13;;;;;;;;;;5033413;28;20435;-65
2023/01/02 14:53:31;;;;;;;7.13;5.20;;;;;;;;;;5033480;28;20441;-66
2023/01/02 14:56:02;;;;;;;6.13;4.83;;;;;;;;;;5033410;28;20513;-68
2023/01/02 14:58:37;;;;;;;6.10;5.53;;;;;;;;;;5033154;28;20441;-68
2023/01/02 15:01:05;;;;;;;7.40;5.17;;;;;;;;;;5035994;28;20967;-67